Terminal Aerodrome Forecast
Issued by NWS

Home | Current Version | Previous Version | Text Only | Print | Product List | Glossary On
Versions: 1 2 3 4 5 6 7 8 9 10 11 12 13 14 15 16 17 18 19 20 21 22 23 24 25 26 27 28 29 30 31 32
000
FTUS45 KSLC 300520
TAFOGD
TAF
KOGD 300520Z 3006/3106 05010KT P6SM -SHRA VCTS BKN080CB OVC100
      TEMPO 3006/3007 -TSRA SCT060 BKN080CB
     FM300700 VRB05KT P6SM VCSH SCT080 BKN100
     FM301000 30006KT P6SM SCT080 BKN110
     FM301600 08006KT P6SM SCT110 BKN140
     FM302100 08012G18KT P6SM FEW110 SCT140
     FM310300 15005KT P6SM SCT140=

USA.gov is the U.S. government's official web portal to all federal, state and local government web resources and services.